createdAt,value
2022-10-29T00:00:27.259Z,5.40
2022-10-29T00:05:29.699Z,4.70
2022-10-29T00:10:32.259Z,4.90
2022-10-29T00:15:34.580Z,4.27
2022-10-29T00:20:36.977Z,4.70
2022-10-29T00:25:39.385Z,5.17
2022-10-29T00:30:41.704Z,4.63
2022-10-29T00:35:54.275Z,5.20
2022-10-29T00:40:56.629Z,5.10
2022-10-29T00:46:27.293Z,4.47
2022-10-29T00:51:32.538Z,4.00
2022-10-29T00:56:42.161Z,4.00
2022-10-29T01:01:47.064Z,3.80
2022-10-29T01:06:50.108Z,4.30
2022-10-29T01:12:17.086Z,4.20
2022-10-29T01:17:42.737Z,4.07
2022-10-29T01:22:54.361Z,4.03
2022-10-29T01:28:08.726Z,4.10
2022-10-29T01:33:36.483Z,4.57
2022-10-29T01:39:03.273Z,4.07
2022-10-29T01:44:26.910Z,3.70
2022-10-29T01:49:35.633Z,4.17
2022-10-29T01:54:43.255Z,3.57
2022-10-29T01:59:55.522Z,3.80
2022-10-29T02:05:18.164Z,3.90
2022-10-29T02:10:32.651Z,3.83
2022-10-29T02:15:36.842Z,4.03
2022-10-29T02:20:43.515Z,3.90
2022-10-29T02:25:45.947Z,4.03
2022-10-29T02:30:48.423Z,4.87
2022-10-29T02:35:50.944Z,4.70
2022-10-29T02:40:53.386Z,4.50
2022-10-29T02:46:31.529Z,4.27
2022-10-29T02:51:34.163Z,3.70
2022-10-29T02:56:36.527Z,4.47
2022-10-29T03:01:38.998Z,5.10
2022-10-29T03:06:41.570Z,3.97
2022-10-29T03:17:00.141Z,4.53
2022-10-29T03:22:02.529Z,3.70
2022-10-29T03:27:04.994Z,4.40
2022-10-29T03:32:07.380Z,4.90
2022-10-29T03:37:09.877Z,4.80
2022-10-29T03:42:12.248Z,4.77
2022-10-29T03:47:14.553Z,3.97
2022-10-29T03:52:17.132Z,4.60
2022-10-29T03:57:19.758Z,4.67
2022-10-29T04:02:22.482Z,4.20
2022-10-29T04:07:24.932Z,4.57
2022-10-29T04:12:27.304Z,4.50
2022-10-29T04:17:29.921Z,4.33
2022-10-29T04:24:28.956Z,4.23
2022-10-29T04:33:18.551Z,4.87
2022-10-29T04:38:21.557Z,4.43
2022-10-29T04:43:23.974Z,3.93
2022-10-29T04:48:27.592Z,3.63
2022-10-29T04:53:29.976Z,4.10
2022-10-29T04:58:32.335Z,4.00
2022-10-29T05:03:34.902Z,4.20
2022-10-29T05:08:37.354Z,4.53
2022-10-29T05:13:39.766Z,4.57
2022-10-29T05:18:42.109Z,4.00
2022-10-29T05:23:44.488Z,4.63
2022-10-29T05:28:53.013Z,4.97
2022-10-29T05:33:56.078Z,4.50
2022-10-29T05:38:58.686Z,4.10
2022-10-29T05:44:01.054Z,4.20
2022-10-29T05:49:03.992Z,4.00
2022-10-29T05:54:06.548Z,4.57
2022-10-29T05:59:09.057Z,4.40
2022-10-29T06:04:11.428Z,4.33
2022-10-29T06:09:13.790Z,4.17
2022-10-29T06:14:16.112Z,4.70
2022-10-29T06:19:18.551Z,4.27
2022-10-29T06:24:21.170Z,4.97
2022-10-29T06:29:23.571Z,4.77
2022-10-29T06:34:26.005Z,4.60
2022-10-29T06:39:28.409Z,4.27
2022-10-29T06:44:30.794Z,4.33
2022-10-29T06:49:33.191Z,4.37
2022-10-29T06:54:35.543Z,4.30
2022-10-29T06:59:37.860Z,4.50
2022-10-29T07:04:40.227Z,5.00
2022-10-29T07:09:45.590Z,5.37
2022-10-29T07:14:47.952Z,4.67
2022-10-29T07:19:50.499Z,5.50
2022-10-29T07:24:54.777Z,5.33
2022-10-29T07:29:59.627Z,4.17
2022-10-29T07:35:02.053Z,5.33
2022-10-29T07:40:05.209Z,5.37
2022-10-29T07:45:07.949Z,5.27
2022-10-29T07:50:10.774Z,5.37
2022-10-29T07:55:13.148Z,5.57
2022-10-29T08:00:15.829Z,5.00
2022-10-29T08:05:18.663Z,4.47
2022-10-29T08:10:22.178Z,4.17
2022-10-29T08:15:25.818Z,4.97
2022-10-29T08:20:29.503Z,5.27
2022-10-29T08:25:31.999Z,3.40
2022-10-29T08:30:34.814Z,3.67
2022-10-29T08:35:37.231Z,5.00
2022-10-29T08:40:48.179Z,5.67
2022-10-29T08:45:54.795Z,4.83
2022-10-29T08:51:51.026Z,4.10
2022-10-29T08:56:57.958Z,4.80
2022-10-29T09:02:00.428Z,3.70
2022-10-29T09:07:28.725Z,3.30
2022-10-29T09:13:12.171Z,2.57
2022-10-29T09:18:52.527Z,2.73
2022-10-29T09:24:00.890Z,3.20
2022-10-29T09:29:15.745Z,5.10
2022-10-29T09:34:55.429Z,2.53
2022-10-29T09:39:59.207Z,3.67
2022-10-29T09:45:09.335Z,332.50
2022-10-29T09:50:33.010Z,434.07
2022-10-29T09:55:44.795Z,267.60
2022-10-29T10:00:47.207Z,214.83
2022-10-29T10:06:00.168Z,69.80
2022-10-29T10:11:06.133Z,14.70
2022-10-29T10:16:08.885Z,4.40
2022-10-29T10:21:14.133Z,3.10
2022-10-29T10:26:43.181Z,5.80
2022-10-29T10:31:46.783Z,24.73
2022-10-29T10:37:02.910Z,5.07
2022-10-29T10:42:16.304Z,4.40
2022-10-29T10:47:22.354Z,3.80
2022-10-29T10:52:31.795Z,3.07
2022-10-29T10:57:40.770Z,7.50
2022-10-29T11:02:49.575Z,171.80
2022-10-29T11:07:59.193Z,183.23
2022-10-29T11:13:06.471Z,101.70
2022-10-29T11:18:35.302Z,11.23
2022-10-29T11:24:05.594Z,7.87
2022-10-29T11:29:22.899Z,3.67
2022-10-29T11:34:36.229Z,117.20
2022-10-29T11:39:48.230Z,6.15
2022-10-29T11:44:51.496Z,25.15
2022-10-29T11:50:09.346Z,2.80
2022-10-29T11:55:35.897Z,3.20
2022-10-29T12:01:11.264Z,4.75
2022-10-29T12:06:31.130Z,28.00
2022-10-29T12:12:02.814Z,7.33
2022-10-29T12:17:21.049Z,30.47
2022-10-29T12:22:33.387Z,21.13
2022-10-29T12:28:07.269Z,26.40
2022-10-29T12:33:27.533Z,4.77
2022-10-29T12:38:36.382Z,14.70
2022-10-29T12:43:40.969Z,6.90
2022-10-29T12:48:52.448Z,4.47
2022-10-29T12:54:15.416Z,1.70
2022-10-29T12:59:33.120Z,31.27
2022-10-29T13:04:35.551Z,4.67
2022-10-29T13:09:38.357Z,24.53
2022-10-29T13:14:55.665Z,2.33
2022-10-29T13:20:19.387Z,5.13
2022-10-29T13:25:46.483Z,15.73
2022-10-29T13:30:54.225Z,4.23
2022-10-29T13:36:00.243Z,4.70
2022-10-29T13:41:23.765Z,5.73
2022-10-29T13:46:34.872Z,5.33
2022-10-29T13:51:52.544Z,4.27
2022-10-29T13:57:12.160Z,4.40
2022-10-29T14:02:19.706Z,3.50
2022-10-29T14:07:30.164Z,3.70
2022-10-29T14:12:33.967Z,4.37
2022-10-29T14:17:36.421Z,3.00
2022-10-29T14:22:40.796Z,3.00
2022-10-29T14:27:43.151Z,3.67
2022-10-29T14:32:46.450Z,3.67
2022-10-29T14:37:49.715Z,4.00
2022-10-29T14:42:55.792Z,3.90
2022-10-29T14:48:08.999Z,3.73
2022-10-29T14:53:34.537Z,3.90
2022-10-29T14:58:38.235Z,3.60
2022-10-29T15:03:40.613Z,4.07
2022-10-29T15:08:45.617Z,3.67
2022-10-29T15:13:47.959Z,3.93
2022-10-29T15:18:53.074Z,3.80
2022-10-29T15:24:08.282Z,4.07
2022-10-29T15:29:12.063Z,3.40
2022-10-29T15:34:20.921Z,4.00
2022-10-29T15:39:50.448Z,3.20
2022-10-29T15:45:08.091Z,4.00
2022-10-29T15:50:19.903Z,4.77
2022-10-29T15:55:42.889Z,3.60
2022-10-29T16:00:45.664Z,3.87
2022-10-29T16:05:51.134Z,2.30
2022-10-29T16:10:54.355Z,3.40
2022-10-29T16:15:56.820Z,2.40
2022-10-29T16:21:02.689Z,2.27
2022-10-29T16:26:05.536Z,3.97
2022-10-29T16:31:26.122Z,5.67
2022-10-29T16:36:28.477Z,3.63
2022-10-29T16:41:33.253Z,14.50
2022-10-29T16:46:35.621Z,5.30
2022-10-29T16:51:38.032Z,3.87
2022-10-29T16:56:43.040Z,7.90
2022-10-29T17:01:47.176Z,6.57
2022-10-29T17:06:50.020Z,19.77
2022-10-29T17:11:52.542Z,104.63
2022-10-29T17:16:54.950Z,16.77
2022-10-29T17:21:58.898Z,7.07
2022-10-29T17:27:01.263Z,4.40
2022-10-29T17:37:27.981Z,9.10
2022-10-29T17:42:31.242Z,7.50
2022-10-29T17:47:33.673Z,10.17
2022-10-29T17:52:36.126Z,4.50
2022-10-29T17:57:38.539Z,5.00
2022-10-29T18:02:41.084Z,9.43
2022-10-29T18:07:43.669Z,10.23
2022-10-29T18:12:46.062Z,9.53
2022-10-29T18:17:48.526Z,25.13
2022-10-29T18:22:55.543Z,73.53
2022-10-29T18:27:58.411Z,48.20
2022-10-29T18:33:01.365Z,42.57
2022-10-29T18:38:04.062Z,12.90
2022-10-29T18:43:06.452Z,26.97
2022-10-29T18:48:09.150Z,10.20
2022-10-29T18:53:11.640Z,29.80
2022-10-29T18:58:14.237Z,24.30
2022-10-29T19:03:17.143Z,17.20
2022-10-29T19:08:19.516Z,12.53
2022-10-29T19:13:22.468Z,10.60
2022-10-29T19:18:24.845Z,10.40
2022-10-29T19:23:27.201Z,10.23
2022-10-29T19:28:30.732Z,327.40
2022-10-29T19:33:33.519Z,24.50
2022-10-29T19:38:36.332Z,8.77
2022-10-29T19:43:39.753Z,10.43
2022-10-29T19:48:42.464Z,24.57
2022-10-29T19:53:45.166Z,13.20
2022-10-29T19:58:47.678Z,79.90
2022-10-29T20:03:50.105Z,26.77
2022-10-29T20:08:52.739Z,9.07
2022-10-29T20:13:55.145Z,8.73
2022-10-29T20:18:57.778Z,8.73
2022-10-29T20:24:00.154Z,8.90
2022-10-29T20:29:02.506Z,30.00
2022-10-29T20:34:04.916Z,9.60
2022-10-29T20:39:07.463Z,8.67
2022-10-29T20:44:10.152Z,9.30
2022-10-29T20:49:12.537Z,9.17
2022-10-29T20:54:14.903Z,11.13
2022-10-29T20:59:17.299Z,9.03
2022-10-29T21:04:19.695Z,9.83
2022-10-29T21:09:22.946Z,8.17
2022-10-29T21:14:27.514Z,9.57
2022-10-29T21:19:29.920Z,7.90
2022-10-29T21:24:32.262Z,7.70
2022-10-29T21:29:34.623Z,7.73
2022-10-29T21:34:37.474Z,7.53
2022-10-29T21:39:39.925Z,8.57
2022-10-29T21:44:42.385Z,7.43
2022-10-29T21:49:51.730Z,7.33
2022-10-29T21:54:54.690Z,6.93
2022-10-29T21:59:57.046Z,7.57
2022-10-29T22:04:59.396Z,6.97
2022-10-29T22:10:02.040Z,7.47
2022-10-29T22:15:05.295Z,6.80
2022-10-29T22:20:08.098Z,7.50
2022-10-29T22:25:10.757Z,7.70
2022-10-29T22:30:13.269Z,7.53
2022-10-29T22:35:17.074Z,8.80
2022-10-29T22:40:19.500Z,6.80
2022-10-29T22:45:22.142Z,9.03
2022-10-29T22:50:24.812Z,8.70
2022-10-29T22:55:27.202Z,9.50
2022-10-29T23:00:29.645Z,9.50
2022-10-29T23:05:32.013Z,8.70
2022-10-29T23:10:34.557Z,8.63
2022-10-29T23:15:36.938Z,8.33
2022-10-29T23:20:39.301Z,8.70
2022-10-29T23:25:42.353Z,9.10
2022-10-29T23:30:52.051Z,14.10
2022-10-29T23:35:54.736Z,9.07
2022-10-29T23:40:57.115Z,8.97
2022-10-29T23:45:59.547Z,7.30
2022-10-29T23:51:02.067Z,8.73
2022-10-29T23:56:05.048Z,8.50
